createdAt,value
2023-02-20T00:00:05.391Z,6.03
2023-02-20T00:02:33.267Z,6.04
2023-02-20T00:04:59.766Z,6.05
2023-02-20T00:07:26.216Z,6.06
2023-02-20T00:09:52.727Z,6.08
2023-02-20T00:12:19.306Z,6.09
2023-02-20T00:14:45.766Z,6.09
2023-02-20T00:17:12.227Z,6.10
2023-02-20T00:19:39.867Z,6.11
2023-02-20T00:22:06.337Z,6.13
2023-02-20T00:24:32.793Z,6.14
2023-02-20T00:26:59.270Z,6.14
2023-02-20T00:29:25.734Z,6.16
2023-02-20T00:31:57.681Z,6.19
2023-02-20T00:34:27.657Z,6.22
2023-02-20T00:36:54.973Z,6.23
2023-02-20T00:39:21.467Z,6.24
2023-02-20T00:41:48.792Z,6.23
2023-02-20T00:44:15.913Z,6.23
2023-02-20T00:46:42.602Z,6.23
2023-02-20T00:49:09.123Z,6.22
2023-02-20T00:51:47.998Z,6.23
2023-02-20T00:54:15.899Z,6.25
2023-02-20T00:56:42.318Z,6.25
2023-02-20T00:59:08.846Z,6.27
2023-02-20T01:01:35.328Z,6.28
2023-02-20T01:04:01.790Z,6.29
2023-02-20T01:06:28.310Z,6.30
2023-02-20T01:08:54.752Z,6.30
2023-02-20T01:11:21.568Z,6.32
2023-02-20T01:13:48.133Z,6.32
2023-02-20T01:16:14.971Z,6.34
2023-02-20T01:18:42.968Z,6.36
2023-02-20T01:21:09.513Z,6.37
2023-02-20T01:23:35.980Z,6.38
2023-02-20T01:26:02.446Z,6.38
2023-02-20T01:28:29.021Z,6.39
2023-02-20T01:30:55.548Z,6.41
2023-02-20T01:33:22.089Z,6.41
2023-02-20T01:35:48.496Z,6.43
2023-02-20T01:38:15.156Z,6.44
2023-02-20T01:40:49.140Z,6.43
2023-02-20T01:43:16.856Z,6.43
2023-02-20T01:45:44.155Z,6.42
2023-02-20T01:48:23.640Z,6.43
2023-02-20T01:50:53.650Z,6.40
2023-02-20T01:53:23.684Z,6.40
2023-02-20T01:55:55.899Z,6.40
2023-02-20T01:58:28.155Z,6.40
2023-02-20T02:00:56.039Z,6.40
2023-02-20T02:03:27.913Z,6.39
2023-02-20T02:06:00.383Z,6.39
2023-02-20T02:08:29.004Z,6.41
2023-02-20T02:11:01.820Z,6.43
2023-02-20T02:13:29.897Z,6.45
2023-02-20T02:16:10.251Z,6.44
2023-02-20T02:18:39.685Z,6.40
2023-02-20T02:21:40.266Z,6.34
2023-02-20T02:24:40.979Z,6.28
2023-02-20T02:27:45.114Z,6.24
2023-02-20T02:30:38.040Z,6.22
2023-02-20T02:33:23.808Z,6.20
2023-02-20T02:36:06.611Z,6.20
2023-02-20T02:38:37.016Z,6.22
2023-02-20T02:41:16.472Z,6.21
2023-02-20T02:44:07.958Z,6.22
2023-02-20T02:46:42.980Z,6.21
2023-02-20T02:49:27.517Z,6.22
2023-02-20T02:51:56.429Z,6.22
2023-02-20T02:54:27.591Z,6.23
2023-02-20T02:57:19.651Z,6.26
2023-02-20T02:59:49.023Z,6.28
2023-02-20T03:02:18.953Z,6.30
2023-02-20T03:04:49.451Z,6.34
2023-02-20T03:07:19.735Z,6.35
2023-02-20T03:09:54.208Z,6.35
2023-02-20T03:12:22.631Z,6.32
2023-02-20T03:15:32.473Z,6.27
2023-02-20T03:18:13.161Z,6.26
2023-02-20T03:20:43.880Z,6.26
2023-02-20T03:23:18.262Z,6.29
2023-02-20T03:25:53.840Z,6.31
2023-02-20T03:28:28.687Z,6.34
2023-02-20T03:31:04.637Z,6.35
2023-02-20T03:34:17.172Z,6.39
2023-02-20T03:37:24.048Z,6.39
2023-02-20T03:40:13.728Z,6.43
2023-02-20T03:43:04.683Z,6.45
2023-02-20T03:45:38.845Z,6.47
2023-02-20T03:48:14.655Z,6.49
2023-02-20T03:51:00.273Z,6.50
2023-02-20T03:53:32.076Z,6.51
2023-02-20T03:56:02.383Z,6.53
2023-02-20T03:58:33.916Z,6.53
2023-02-20T04:01:03.889Z,6.52
2023-02-20T04:03:35.219Z,6.54
2023-02-20T04:06:06.920Z,6.55
2023-02-20T04:08:44.303Z,6.56
2023-02-20T04:11:25.211Z,6.56
2023-02-20T04:13:54.648Z,6.57
2023-02-20T04:16:22.732Z,6.57
2023-02-20T04:18:49.989Z,6.59
2023-02-20T04:21:27.950Z,6.59
2023-02-20T04:24:06.593Z,6.59
2023-02-20T04:26:34.469Z,6.62
2023-02-20T04:29:01.595Z,6.63
2023-02-20T04:31:28.152Z,6.62
2023-02-20T04:33:54.869Z,6.62
2023-02-20T04:36:23.863Z,6.62
2023-02-20T04:38:51.838Z,6.61
2023-02-20T04:41:23.289Z,6.57
2023-02-20T04:43:49.828Z,6.54
2023-02-20T04:46:17.654Z,6.52
2023-02-20T04:48:44.319Z,6.52
2023-02-20T04:51:11.103Z,6.51
2023-02-20T04:53:37.964Z,6.51
2023-02-20T04:56:04.785Z,6.53
2023-02-20T04:58:36.895Z,6.58
2023-02-20T05:01:12.195Z,6.64
2023-02-20T05:03:38.687Z,6.65
2023-02-20T05:06:05.323Z,6.69
2023-02-20T05:08:32.132Z,6.72
2023-02-20T05:11:01.034Z,6.76
2023-02-20T05:13:27.516Z,6.76
2023-02-20T05:15:54.063Z,6.74
2023-02-20T05:18:27.739Z,6.70
2023-02-20T05:21:12.937Z,6.65
2023-02-20T05:23:39.550Z,6.62
2023-02-20T05:26:10.970Z,6.58
2023-02-20T05:28:39.741Z,6.55
2023-02-20T05:31:06.650Z,6.55
2023-02-20T05:33:33.541Z,6.54
2023-02-20T05:36:00.760Z,6.56
2023-02-20T05:38:27.473Z,6.57
2023-02-20T05:40:53.995Z,6.58
2023-02-20T05:43:20.561Z,6.61
2023-02-20T05:45:47.681Z,6.61
2023-02-20T05:48:15.248Z,6.64
2023-02-20T05:50:41.968Z,6.67
2023-02-20T05:53:17.374Z,6.71
2023-02-20T05:55:44.026Z,6.71
2023-02-20T05:58:10.697Z,6.74
2023-02-20T06:00:37.239Z,6.76
2023-02-20T06:03:07.526Z,6.78
2023-02-20T06:05:34.046Z,6.81
2023-02-20T06:08:00.509Z,6.83
2023-02-20T06:10:27.396Z,6.85
2023-02-20T06:12:53.884Z,6.87
2023-02-20T06:15:20.446Z,6.89
2023-02-20T06:17:46.913Z,6.91
2023-02-20T06:20:13.569Z,6.92
2023-02-20T06:22:40.110Z,6.93
2023-02-20T06:25:06.962Z,6.94
2023-02-20T06:27:33.447Z,6.95
2023-02-20T06:30:00.083Z,6.95
2023-02-20T06:32:26.867Z,6.95
2023-02-20T06:34:53.332Z,6.95
2023-02-20T06:37:19.956Z,6.95
2023-02-20T06:39:48.158Z,6.95
2023-02-20T06:42:15.497Z,6.97
2023-02-20T06:44:42.042Z,6.98
2023-02-20T06:47:09.133Z,6.99
2023-02-20T06:49:36.709Z,7.01
2023-02-20T06:52:04.461Z,7.03
2023-02-20T06:54:31.337Z,7.08
2023-02-20T06:56:58.668Z,7.11
2023-02-20T06:59:25.302Z,7.14
2023-02-20T07:01:52.001Z,7.17
2023-02-20T07:04:27.736Z,7.22
2023-02-20T07:06:55.531Z,7.28
2023-02-20T07:09:22.796Z,7.32
2023-02-20T07:11:50.837Z,7.36
2023-02-20T07:14:17.500Z,7.39
2023-02-20T07:16:44.006Z,7.43
2023-02-20T07:19:11.597Z,7.49
2023-02-20T07:21:38.124Z,7.55
2023-02-20T07:24:05.078Z,7.59
2023-02-20T07:26:31.719Z,7.64
2023-02-20T07:28:58.938Z,7.68
2023-02-20T07:31:25.703Z,7.72
2023-02-20T07:33:52.442Z,7.76
2023-02-20T07:36:20.914Z,7.80
2023-02-20T07:38:58.499Z,7.86
2023-02-20T07:41:29.529Z,7.90
2023-02-20T07:43:56.453Z,7.93
2023-02-20T07:46:23.360Z,7.98
2023-02-20T07:48:50.044Z,7.99
2023-02-20T07:51:16.784Z,8.05
2023-02-20T07:53:50.621Z,8.06
2023-02-20T07:56:19.646Z,8.11
2023-02-20T07:58:46.246Z,8.18
2023-02-20T08:01:12.961Z,8.47
2023-02-20T08:03:42.885Z,8.72
2023-02-20T08:06:09.852Z,8.93
2023-02-20T08:08:39.843Z,9.03
2023-02-20T08:11:09.984Z,9.21
2023-02-20T08:13:37.590Z,9.20
2023-02-20T08:16:04.658Z,9.21
2023-02-20T08:18:31.443Z,9.17
2023-02-20T08:20:58.007Z,9.13
2023-02-20T08:23:25.816Z,9.06
2023-02-20T08:25:52.448Z,8.99
2023-02-20T08:28:19.909Z,8.99
2023-02-20T08:30:47.264Z,8.97
2023-02-20T08:33:14.137Z,8.95
2023-02-20T08:35:41.007Z,8.90
2023-02-20T08:38:28.318Z,8.91
2023-02-20T08:40:55.512Z,8.90
2023-02-20T08:43:24.288Z,8.89
2023-02-20T08:45:51.867Z,8.94
2023-02-20T08:48:18.421Z,8.96
2023-02-20T08:50:46.904Z,9.03
2023-02-20T08:53:16.695Z,9.08
2023-02-20T08:55:43.618Z,9.10
2023-02-20T08:58:10.597Z,9.15
2023-02-20T09:00:37.081Z,9.18
2023-02-20T09:03:07.304Z,9.19
2023-02-20T09:05:36.129Z,9.18
2023-02-20T09:08:04.712Z,9.21
2023-02-20T09:10:31.239Z,9.25
2023-02-20T09:12:58.116Z,9.25
2023-02-20T09:15:24.983Z,9.29
2023-02-20T09:17:52.260Z,9.39
2023-02-20T09:20:21.228Z,9.50
2023-02-20T09:22:48.935Z,9.67
2023-02-20T09:25:16.116Z,9.72
2023-02-20T09:27:44.006Z,9.74
2023-02-20T09:30:13.574Z,9.75
2023-02-20T09:32:40.141Z,9.77
2023-02-20T09:35:06.785Z,9.87
2023-02-20T09:37:33.219Z,9.93
2023-02-20T09:40:00.047Z,9.94
2023-02-20T09:42:47.776Z,9.97
2023-02-20T09:45:30.858Z,9.98
2023-02-20T09:48:35.456Z,9.98
2023-02-20T09:51:18.232Z,10.07
2023-02-20T09:53:47.666Z,10.16
2023-02-20T09:56:19.616Z,10.12
2023-02-20T09:59:02.934Z,9.93
2023-02-20T10:01:31.302Z,9.75
2023-02-20T10:04:13.617Z,9.74
2023-02-20T10:06:40.320Z,9.63
2023-02-20T10:09:12.968Z,9.58
2023-02-20T10:11:59.506Z,9.53
2023-02-20T10:14:28.755Z,9.48
2023-02-20T10:17:10.977Z,9.46
2023-02-20T10:20:09.405Z,9.42
2023-02-20T10:22:48.203Z,9.40
2023-02-20T10:25:18.405Z,9.34
2023-02-20T10:27:56.912Z,9.31
2023-02-20T10:30:42.066Z,9.29
2023-02-20T10:33:24.043Z,9.27
2023-02-20T10:35:57.073Z,9.29
2023-02-20T10:38:29.524Z,9.29
2023-02-20T10:41:09.452Z,9.29
2023-02-20T10:43:55.322Z,9.29
2023-02-20T10:46:39.759Z,9.27
2023-02-20T10:49:44.157Z,9.23
2023-02-20T10:52:29.626Z,9.18
2023-02-20T10:55:48.601Z,9.16
2023-02-20T10:58:32.359Z,9.14
2023-02-20T11:01:11.149Z,9.14
2023-02-20T11:03:51.796Z,9.15
2023-02-20T11:06:21.720Z,9.15
2023-02-20T11:08:48.709Z,9.12
2023-02-20T11:11:27.915Z,9.15
2023-02-20T11:13:54.532Z,9.15
2023-02-20T11:16:26.224Z,9.11
2023-02-20T11:19:06.436Z,9.18
2023-02-20T11:21:36.575Z,9.17
2023-02-20T11:24:21.215Z,9.14
2023-02-20T11:26:52.086Z,9.12
2023-02-20T11:29:21.782Z,9.16
2023-02-20T11:31:49.756Z,9.18
2023-02-20T11:34:21.764Z,9.22
2023-02-20T11:36:54.541Z,9.12
2023-02-20T11:39:25.822Z,9.14
2023-02-20T11:42:15.377Z,9.11
2023-02-20T11:44:42.019Z,9.06
2023-02-20T11:47:19.570Z,9.05
2023-02-20T11:49:46.110Z,9.01
2023-02-20T11:52:21.216Z,9.03
2023-02-20T11:55:08.429Z,9.02
2023-02-20T11:57:38.720Z,9.05
2023-02-20T12:00:20.108Z,9.06
2023-02-20T12:02:57.027Z,9.08
2023-02-20T12:05:55.108Z,9.10
2023-02-20T12:08:47.677Z,9.16
2023-02-20T12:11:18.239Z,9.18
2023-02-20T12:13:47.803Z,9.24
2023-02-20T12:16:38.959Z,9.15
2023-02-20T12:19:05.349Z,9.21
2023-02-20T12:21:50.582Z,9.20
2023-02-20T12:24:45.315Z,9.13
2023-02-20T12:27:27.051Z,9.14
2023-02-20T12:30:06.331Z,9.09
2023-02-20T12:32:48.472Z,9.09
2023-02-20T12:35:26.812Z,9.06
2023-02-20T12:38:15.457Z,9.05
2023-02-20T12:41:12.302Z,9.08
2023-02-20T12:44:12.541Z,9.06
2023-02-20T12:46:57.975Z,8.99
2023-02-20T12:50:03.973Z,8.99
2023-02-20T12:52:53.649Z,8.92
2023-02-20T12:55:20.216Z,8.91
2023-02-20T12:58:04.469Z,8.85
2023-02-20T13:00:36.815Z,8.82
2023-02-20T13:03:18.719Z,8.80
2023-02-20T13:05:48.291Z,8.78
2023-02-20T13:08:23.541Z,8.82
2023-02-20T13:10:58.457Z,8.83
2023-02-20T13:13:28.863Z,8.86
2023-02-20T13:16:10.884Z,8.86
2023-02-20T13:18:49.137Z,8.80
2023-02-20T13:21:18.283Z,8.76
2023-02-20T13:23:44.747Z,8.70
2023-02-20T13:26:46.155Z,8.69
2023-02-20T13:29:15.713Z,8.62
2023-02-20T13:31:48.774Z,8.57
2023-02-20T13:34:15.544Z,8.53
2023-02-20T13:36:44.356Z,8.51
2023-02-20T13:39:20.239Z,8.64
2023-02-20T13:41:55.924Z,8.77
2023-02-20T13:44:31.331Z,8.80
2023-02-20T13:47:02.767Z,8.78
2023-02-20T13:49:59.075Z,8.75
2023-02-20T13:52:43.212Z,8.75
2023-02-20T13:55:09.632Z,8.76
2023-02-20T13:57:49.840Z,8.74
2023-02-20T14:00:27.082Z,8.69
2023-02-20T14:02:55.110Z,8.70
2023-02-20T14:05:29.368Z,8.69
2023-02-20T14:07:56.509Z,8.71
2023-02-20T14:10:38.396Z,8.70
2023-02-20T14:13:07.508Z,8.72
2023-02-20T14:15:45.608Z,8.75
2023-02-20T14:18:21.563Z,8.76
2023-02-20T14:20:49.394Z,8.76
2023-02-20T14:23:21.505Z,8.76
2023-02-20T14:26:00.242Z,8.74
2023-02-20T14:28:29.921Z,8.76
2023-02-20T14:31:20.231Z,8.75
2023-02-20T14:33:49.949Z,8.73
2023-02-20T14:36:36.951Z,8.73
2023-02-20T14:39:10.739Z,8.72
2023-02-20T14:41:37.920Z,8.73
2023-02-20T14:44:14.125Z,8.69
2023-02-20T14:46:40.718Z,8.69
2023-02-20T14:49:17.036Z,8.68
2023-02-20T14:51:43.525Z,8.67
2023-02-20T14:54:12.983Z,8.68
2023-02-20T14:56:39.934Z,8.66
2023-02-20T14:59:22.630Z,8.65
2023-02-20T15:01:49.168Z,8.62
2023-02-20T15:04:17.905Z,8.62
2023-02-20T15:06:48.422Z,8.60
2023-02-20T15:09:22.542Z,8.62
2023-02-20T15:11:58.161Z,8.63
2023-02-20T15:14:28.608Z,8.63
2023-02-20T15:17:13.250Z,8.64
2023-02-20T15:19:41.387Z,8.64
2023-02-20T15:22:30.508Z,8.64
2023-02-20T15:25:27.303Z,8.63
2023-02-20T15:28:05.331Z,8.62
2023-02-20T15:30:31.956Z,8.63
2023-02-20T15:32:59.139Z,8.65
2023-02-20T15:35:28.774Z,8.66
2023-02-20T15:38:01.593Z,8.69
2023-02-20T15:40:31.782Z,8.71
2023-02-20T15:43:04.257Z,8.72
2023-02-20T15:45:31.867Z,8.73
2023-02-20T15:47:58.873Z,8.74
2023-02-20T15:50:28.483Z,8.72
2023-02-20T15:52:56.966Z,8.70
2023-02-20T15:55:24.013Z,8.69
2023-02-20T15:57:55.020Z,8.64
2023-02-20T16:00:25.155Z,8.63
2023-02-20T16:02:52.992Z,8.62
2023-02-20T16:05:20.043Z,8.63
2023-02-20T16:07:46.790Z,8.62
2023-02-20T16:10:16.707Z,8.61
2023-02-20T16:12:43.551Z,8.57
2023-02-20T16:15:17.391Z,8.55
2023-02-20T16:17:44.504Z,8.54
2023-02-20T16:20:17.682Z,8.53
2023-02-20T16:22:44.546Z,8.50
2023-02-20T16:25:15.044Z,8.48
2023-02-20T16:27:42.057Z,8.47
2023-02-20T16:30:32.138Z,8.47
2023-02-20T16:33:03.884Z,8.60
2023-02-20T16:35:30.945Z,8.67
2023-02-20T16:37:57.556Z,8.75
2023-02-20T16:40:24.333Z,8.87
2023-02-20T16:42:50.954Z,8.94
2023-02-20T16:45:19.438Z,9.02
2023-02-20T16:47:52.420Z,9.09
2023-02-20T16:50:23.735Z,9.13
2023-02-20T16:52:52.504Z,9.09
2023-02-20T16:55:20.191Z,9.05
2023-02-20T16:57:47.172Z,9.03
2023-02-20T17:00:18.576Z,8.98
2023-02-20T17:02:45.427Z,8.93
2023-02-20T17:05:13.852Z,8.84
2023-02-20T17:07:40.813Z,8.77
2023-02-20T17:10:07.857Z,8.69
2023-02-20T17:12:34.800Z,8.61
2023-02-20T17:15:02.602Z,8.53
2023-02-20T17:17:29.068Z,8.48
2023-02-20T17:19:58.052Z,8.44
2023-02-20T17:22:25.839Z,8.37
2023-02-20T17:24:52.554Z,8.36
2023-02-20T17:27:20.146Z,8.34
2023-02-20T17:29:47.560Z,8.33
2023-02-20T17:32:15.186Z,8.30
2023-02-20T17:34:43.168Z,8.30
2023-02-20T17:37:10.543Z,8.29
2023-02-20T17:39:37.514Z,8.28
2023-02-20T17:42:04.340Z,8.27
2023-02-20T17:44:31.025Z,8.27
2023-02-20T17:46:59.578Z,8.25
2023-02-20T17:49:26.957Z,8.24
2023-02-20T17:51:58.600Z,8.24
2023-02-20T17:54:25.669Z,8.23
2023-02-20T17:56:52.414Z,8.23
2023-02-20T17:59:19.052Z,8.22
2023-02-20T18:01:46.341Z,8.21
2023-02-20T18:04:13.582Z,8.21
2023-02-20T18:06:40.568Z,8.23
2023-02-20T18:09:11.378Z,8.23
2023-02-20T18:11:37.902Z,8.23
2023-02-20T18:14:06.523Z,8.22
2023-02-20T18:16:33.158Z,8.23
2023-02-20T18:18:59.926Z,8.24
2023-02-20T18:21:29.314Z,8.23
2023-02-20T18:23:56.340Z,8.24
2023-02-20T18:26:23.832Z,8.25
2023-02-20T18:28:50.860Z,8.27
2023-02-20T18:31:18.146Z,8.28
2023-02-20T18:33:45.651Z,8.29
2023-02-20T18:36:12.548Z,8.28
2023-02-20T18:38:39.130Z,8.29
2023-02-20T18:41:07.398Z,8.28
2023-02-20T18:43:34.041Z,8.27
2023-02-20T18:46:00.622Z,8.26
2023-02-20T18:48:27.214Z,8.26
2023-02-20T18:50:53.769Z,8.24
2023-02-20T18:53:20.252Z,8.22
2023-02-20T18:55:46.836Z,8.22
2023-02-20T18:58:13.369Z,8.21
2023-02-20T19:00:40.687Z,8.20
2023-02-20T19:03:08.211Z,8.19
2023-02-20T19:05:35.216Z,8.18
2023-02-20T19:08:04.014Z,8.17
2023-02-20T19:10:31.462Z,8.15
2023-02-20T19:12:59.348Z,8.15
2023-02-20T19:15:26.374Z,8.13
2023-02-20T19:17:54.949Z,8.12
2023-02-20T19:20:29.151Z,8.11
2023-02-20T19:22:59.366Z,8.09
2023-02-20T19:25:25.921Z,8.08
2023-02-20T19:27:52.746Z,8.08
2023-02-20T19:30:21.025Z,8.07
2023-02-20T19:32:49.482Z,8.07
2023-02-20T19:35:16.904Z,8.05
2023-02-20T19:37:43.675Z,8.06
2023-02-20T19:40:11.007Z,8.06
2023-02-20T19:42:39.152Z,8.06
2023-02-20T19:45:05.974Z,8.06
2023-02-20T19:47:32.369Z,8.05
2023-02-20T19:50:00.134Z,8.07
2023-02-20T19:52:26.557Z,8.07
2023-02-20T19:54:53.186Z,8.07
2023-02-20T19:57:19.792Z,8.09
2023-02-20T19:59:46.521Z,8.07
2023-02-20T20:02:13.250Z,8.10
2023-02-20T20:04:39.837Z,8.11
2023-02-20T20:07:06.366Z,8.12
2023-02-20T20:09:37.010Z,8.13
2023-02-20T20:12:26.562Z,8.12
2023-02-20T20:14:53.677Z,8.11
2023-02-20T20:17:20.165Z,8.11
2023-02-20T20:19:58.802Z,8.11
2023-02-20T20:22:27.526Z,8.11
2023-02-20T20:24:54.060Z,8.10
2023-02-20T20:27:20.957Z,8.11
2023-02-20T20:29:48.705Z,8.09
2023-02-20T20:32:16.919Z,8.10
2023-02-20T20:34:50.560Z,8.12
2023-02-20T20:37:17.584Z,8.10
2023-02-20T20:39:44.200Z,8.10
2023-02-20T20:42:10.820Z,8.10
2023-02-20T20:44:37.371Z,8.10
2023-02-20T20:47:05.200Z,8.10
2023-02-20T20:49:31.672Z,8.09
2023-02-20T20:51:58.164Z,8.11
2023-02-20T20:54:25.893Z,8.09
2023-02-20T20:56:52.350Z,8.11
2023-02-20T20:59:19.180Z,8.10
2023-02-20T21:01:45.849Z,8.10
2023-02-20T21:04:13.088Z,8.10
2023-02-20T21:06:39.587Z,8.10
2023-02-20T21:09:06.148Z,8.12
2023-02-20T21:11:35.333Z,8.13
2023-02-20T21:14:02.042Z,8.13
2023-02-20T21:16:28.709Z,8.14
2023-02-20T21:18:55.442Z,8.13
2023-02-20T21:21:29.203Z,8.14
2023-02-20T21:23:56.094Z,8.14
2023-02-20T21:26:22.982Z,8.15
2023-02-20T21:28:49.852Z,8.15
2023-02-20T21:31:17.163Z,8.17
2023-02-20T21:33:43.813Z,8.18
2023-02-20T21:36:10.830Z,8.19
2023-02-20T21:38:37.347Z,8.20
2023-02-20T21:41:04.439Z,8.20
2023-02-20T21:43:49.529Z,8.20
2023-02-20T21:46:19.451Z,8.18
2023-02-20T21:48:46.045Z,8.19
2023-02-20T21:51:12.793Z,8.19
2023-02-20T21:53:39.456Z,8.21
2023-02-20T21:56:06.117Z,8.22
2023-02-20T21:58:51.426Z,8.23
2023-02-20T22:01:18.894Z,8.22
2023-02-20T22:03:45.325Z,8.24
2023-02-20T22:06:11.936Z,8.24
2023-02-20T22:08:56.788Z,8.23
2023-02-20T22:11:42.092Z,8.22
2023-02-20T22:14:26.958Z,8.21
2023-02-20T22:17:11.968Z,8.21
2023-02-20T22:19:57.010Z,8.22
2023-02-20T22:22:42.264Z,8.21
2023-02-20T22:25:29.171Z,8.22
2023-02-20T22:28:14.046Z,8.21
2023-02-20T22:30:59.079Z,8.22
2023-02-20T22:33:44.042Z,8.22
2023-02-20T22:36:28.994Z,8.22
2023-02-20T22:39:14.892Z,8.21
2023-02-20T22:42:00.079Z,8.23
2023-02-20T22:44:44.998Z,8.22
2023-02-20T22:47:30.166Z,8.22
2023-02-20T22:50:15.471Z,8.21
2023-02-20T22:53:00.500Z,8.23
2023-02-20T22:55:45.771Z,8.23
2023-02-20T22:58:30.955Z,8.23
2023-02-20T23:01:16.446Z,8.25
2023-02-20T23:04:01.977Z,8.25
2023-02-20T23:06:46.842Z,8.27
2023-02-20T23:09:34.023Z,8.29
2023-02-20T23:12:20.479Z,8.31
2023-02-20T23:15:05.524Z,8.32
2023-02-20T23:17:50.506Z,8.33
2023-02-20T23:20:39.876Z,8.35
2023-02-20T23:23:26.215Z,8.34
2023-02-20T23:26:12.167Z,8.35
2023-02-20T23:28:58.390Z,8.37
2023-02-20T23:31:57.334Z,8.38
2023-02-20T23:34:43.835Z,8.36
2023-02-20T23:37:29.853Z,8.38
2023-02-20T23:40:19.124Z,8.39
2023-02-20T23:43:06.417Z,8.40
2023-02-20T23:45:51.601Z,8.39
2023-02-20T23:48:36.938Z,8.41
2023-02-20T23:51:22.431Z,8.42
2023-02-20T23:54:07.289Z,8.44
2023-02-20T23:56:52.428Z,8.44
2023-02-20T23:59:37.245Z,8.44
